sensor_id;sensor_type;location;lat;lon;timestamp;temperature;humidity
6843;DHT22;3460;52.028;8.916;2023-04-08T00:00:49;6.00;99.90
6843;DHT22;3460;52.028;8.916;2023-04-08T00:03:17;5.90;99.90
6843;DHT22;3460;52.028;8.916;2023-04-08T00:05:44;5.90;99.90
6843;DHT22;3460;52.028;8.916;2023-04-08T00:08:10;6.00;99.90
6843;DHT22;3460;52.028;8.916;2023-04-08T00:10:39;6.00;99.90
6843;DHT22;3460;52.028;8.916;2023-04-08T00:13:06;6.00;99.90
6843;DHT22;3460;52.028;8.916;2023-04-08T00:15:32;6.20;99.90
6843;DHT22;3460;52.028;8.916;2023-04-08T00:17:59;6.20;99.90
6843;DHT22;3460;52.028;8.916;2023-04-08T00:20:26;6.20;99.90
6843;DHT22;3460;52.028;8.916;2023-04-08T00:22:53;6.20;99.90
6843;DHT22;3460;52.028;8.916;2023-04-08T00:25:20;6.00;99.90
6843;DHT22;3460;52.028;8.916;2023-04-08T00:27:48;6.00;99.90
6843;DHT22;3460;52.028;8.916;2023-04-08T00:30:15;5.90;99.90
6843;DHT22;3460;52.028;8.916;2023-04-08T00:32:42;5.80;99.90
6843;DHT22;3460;52.028;8.916;2023-04-08T00:35:09;5.80;99.90
6843;DHT22;3460;52.028;8.916;2023-04-08T00:37:37;5.80;99.90
6843;DHT22;3460;52.028;8.916;2023-04-08T00:40:04;5.80;99.90
6843;DHT22;3460;52.028;8.916;2023-04-08T00:42:31;5.80;99.90
6843;DHT22;3460;52.028;8.916;2023-04-08T00:44:59;5.90;99.90
6843;DHT22;3460;52.028;8.916;2023-04-08T00:47:26;6.00;99.90
6843;DHT22;3460;52.028;8.916;2023-04-08T00:49:53;6.00;99.90
6843;DHT22;3460;52.028;8.916;2023-04-08T00:52:20;5.90;99.90
6843;DHT22;3460;52.028;8.916;2023-04-08T00:54:47;6.00;99.90
6843;DHT22;3460;52.028;8.916;2023-04-08T00:57:14;5.90;99.90
6843;DHT22;3460;52.028;8.916;2023-04-08T00:59:41;5.90;99.90
6843;DHT22;3460;52.028;8.916;2023-04-08T01:02:14;5.90;99.90
6843;DHT22;3460;52.028;8.916;2023-04-08T01:04:49;5.80;99.90
6843;DHT22;3460;52.028;8.916;2023-04-08T01:07:24;5.90;99.90
6843;DHT22;3460;52.028;8.916;2023-04-08T01:09:54;5.80;99.90
6843;DHT22;3460;52.028;8.916;2023-04-08T01:12:25;5.90;99.90
6843;DHT22;3460;52.028;8.916;2023-04-08T01:14:56;5.90;99.90
6843;DHT22;3460;52.028;8.916;2023-04-08T01:17:28;5.90;99.90
6843;DHT22;3460;52.028;8.916;2023-04-08T01:19:56;5.90;99.90
6843;DHT22;3460;52.028;8.916;2023-04-08T01:22:43;6.00;99.90
6843;DHT22;3460;52.028;8.916;2023-04-08T01:25:26;6.00;99.90
6843;DHT22;3460;52.028;8.916;2023-04-08T01:27:57;6.00;99.90
6843;DHT22;3460;52.028;8.916;2023-04-08T01:30:25;6.00;99.90
6843;DHT22;3460;52.028;8.916;2023-04-08T01:32:55;6.00;99.90
6843;DHT22;3460;52.028;8.916;2023-04-08T01:35:23;6.00;99.90
6843;DHT22;3460;52.028;8.916;2023-04-08T01:37:50;6.10;99.90
6843;DHT22;3460;52.028;8.916;2023-04-08T01:40:18;6.20;99.90
6843;DHT22;3460;52.028;8.916;2023-04-08T01:42:47;6.20;99.90
6843;DHT22;3460;52.028;8.916;2023-04-08T01:45:16;6.10;99.90
6843;DHT22;3460;52.028;8.916;2023-04-08T01:47:44;6.10;99.90
6843;DHT22;3460;52.028;8.916;2023-04-08T01:50:13;6.10;99.90
6843;DHT22;3460;52.028;8.916;2023-04-08T01:52:43;6.10;99.90
6843;DHT22;3460;52.028;8.916;2023-04-08T01:55:10;6.10;99.90
6843;DHT22;3460;52.028;8.916;2023-04-08T01:57:38;6.10;99.90
6843;DHT22;3460;52.028;8.916;2023-04-08T02:00:08;6.10;99.90
6843;DHT22;3460;52.028;8.916;2023-04-08T02:02:37;6.10;99.90
6843;DHT22;3460;52.028;8.916;2023-04-08T02:05:06;6.10;99.90
6843;DHT22;3460;52.028;8.916;2023-04-08T02:07:34;6.00;99.90
6843;DHT22;3460;52.028;8.916;2023-04-08T02:10:01;6.00;99.90
6843;DHT22;3460;52.028;8.916;2023-04-08T02:12:28;6.00;99.90
6843;DHT22;3460;52.028;8.916;2023-04-08T02:14:55;6.00;99.90
6843;DHT22;3460;52.028;8.916;2023-04-08T02:17:25;6.10;99.90
6843;DHT22;3460;52.028;8.916;2023-04-08T02:20:02;6.00;99.90
6843;DHT22;3460;52.028;8.916;2023-04-08T02:22:36;6.10;99.90
6843;DHT22;3460;52.028;8.916;2023-04-08T02:25:07;6.10;99.90
6843;DHT22;3460;52.028;8.916;2023-04-08T02:27:36;6.10;99.90
6843;DHT22;3460;52.028;8.916;2023-04-08T02:30:06;6.10;99.90
6843;DHT22;3460;52.028;8.916;2023-04-08T02:32:34;6.10;99.90
6843;DHT22;3460;52.028;8.916;2023-04-08T02:35:04;6.10;99.90
6843;DHT22;3460;52.028;8.916;2023-04-08T02:37:32;6.20;99.90
6843;DHT22;3460;52.028;8.916;2023-04-08T02:39:59;6.20;99.90
6843;DHT22;3460;52.028;8.916;2023-04-08T02:42:26;6.20;99.90
6843;DHT22;3460;52.028;8.916;2023-04-08T02:44:53;6.20;99.90
6843;DHT22;3460;52.028;8.916;2023-04-08T02:47:20;6.30;99.90
6843;DHT22;3460;52.028;8.916;2023-04-08T02:49:47;6.30;99.90
6843;DHT22;3460;52.028;8.916;2023-04-08T02:52:18;6.30;99.90
6843;DHT22;3460;52.028;8.916;2023-04-08T02:54:45;6.30;99.90
6843;DHT22;3460;52.028;8.916;2023-04-08T02:57:12;6.20;99.90
6843;DHT22;3460;52.028;8.916;2023-04-08T02:59:39;6.20;99.90
6843;DHT22;3460;52.028;8.916;2023-04-08T03:02:05;6.10;99.90
6843;DHT22;3460;52.028;8.916;2023-04-08T03:04:32;6.10;99.90
6843;DHT22;3460;52.028;8.916;2023-04-08T03:06:59;6.10;99.90
6843;DHT22;3460;52.028;8.916;2023-04-08T03:09:27;6.10;99.90
6843;DHT22;3460;52.028;8.916;2023-04-08T03:11:54;6.10;99.90
6843;DHT22;3460;52.028;8.916;2023-04-08T03:14:21;6.10;99.90
6843;DHT22;3460;52.028;8.916;2023-04-08T03:16:48;6.10;99.90
6843;DHT22;3460;52.028;8.916;2023-04-08T03:19:15;6.20;99.90
6843;DHT22;3460;52.028;8.916;2023-04-08T03:21:41;6.30;99.90
6843;DHT22;3460;52.028;8.916;2023-04-08T03:24:08;6.30;99.90
6843;DHT22;3460;52.028;8.916;2023-04-08T03:26:37;6.30;99.90
6843;DHT22;3460;52.028;8.916;2023-04-08T03:29:03;6.20;99.90
6843;DHT22;3460;52.028;8.916;2023-04-08T03:31:31;6.20;99.90
6843;DHT22;3460;52.028;8.916;2023-04-08T03:33:58;6.20;99.90
6843;DHT22;3460;52.028;8.916;2023-04-08T03:36:25;6.20;99.90
6843;DHT22;3460;52.028;8.916;2023-04-08T03:38:52;6.30;99.90
6843;DHT22;3460;52.028;8.916;2023-04-08T03:41:19;6.40;99.90
6843;DHT22;3460;52.028;8.916;2023-04-08T03:43:47;6.50;99.90
6843;DHT22;3460;52.028;8.916;2023-04-08T03:46:14;6.50;99.90
6843;DHT22;3460;52.028;8.916;2023-04-08T03:48:41;6.50;99.90
6843;DHT22;3460;52.028;8.916;2023-04-08T03:51:08;6.40;99.90
6843;DHT22;3460;52.028;8.916;2023-04-08T03:53:34;6.30;99.90
6843;DHT22;3460;52.028;8.916;2023-04-08T03:56:01;6.30;99.90
6843;DHT22;3460;52.028;8.916;2023-04-08T03:58:29;6.20;99.90
6843;DHT22;3460;52.028;8.916;2023-04-08T04:00:57;6.20;99.90
6843;DHT22;3460;52.028;8.916;2023-04-08T04:03:25;6.20;99.90
6843;DHT22;3460;52.028;8.916;2023-04-08T04:05:51;6.20;99.90
6843;DHT22;3460;52.028;8.916;2023-04-08T04:08:18;6.20;99.90
6843;DHT22;3460;52.028;8.916;2023-04-08T04:10:45;6.10;99.90
6843;DHT22;3460;52.028;8.916;2023-04-08T04:13:12;6.20;99.90
6843;DHT22;3460;52.028;8.916;2023-04-08T04:15:39;6.20;99.90
6843;DHT22;3460;52.028;8.916;2023-04-08T04:18:07;6.20;99.90
6843;DHT22;3460;52.028;8.916;2023-04-08T04:20:34;6.20;99.90
6843;DHT22;3460;52.028;8.916;2023-04-08T04:23:02;6.20;99.90
6843;DHT22;3460;52.028;8.916;2023-04-08T04:25:29;6.10;99.90
6843;DHT22;3460;52.028;8.916;2023-04-08T04:27:56;6.20;99.90
6843;DHT22;3460;52.028;8.916;2023-04-08T04:30:23;6.20;99.90
6843;DHT22;3460;52.028;8.916;2023-04-08T04:32:50;6.10;99.90
6843;DHT22;3460;52.028;8.916;2023-04-08T04:35:18;6.10;99.90
6843;DHT22;3460;52.028;8.916;2023-04-08T04:37:45;6.10;99.90
6843;DHT22;3460;52.028;8.916;2023-04-08T04:40:14;6.10;99.90
6843;DHT22;3460;52.028;8.916;2023-04-08T04:42:41;6.10;99.90
6843;DHT22;3460;52.028;8.916;2023-04-08T04:45:09;6.10;99.90
6843;DHT22;3460;52.028;8.916;2023-04-08T04:47:35;6.10;99.90
6843;DHT22;3460;52.028;8.916;2023-04-08T04:50:03;6.10;99.90
6843;DHT22;3460;52.028;8.916;2023-04-08T04:52:31;6.10;99.90
6843;DHT22;3460;52.028;8.916;2023-04-08T04:54:58;6.10;99.90
6843;DHT22;3460;52.028;8.916;2023-04-08T04:57:25;6.00;99.90
6843;DHT22;3460;52.028;8.916;2023-04-08T04:59:52;6.00;99.90
6843;DHT22;3460;52.028;8.916;2023-04-08T05:02:19;6.00;99.90
6843;DHT22;3460;52.028;8.916;2023-04-08T05:04:45;6.00;99.90
6843;DHT22;3460;52.028;8.916;2023-04-08T05:07:12;6.10;99.90
6843;DHT22;3460;52.028;8.916;2023-04-08T05:09:40;6.20;99.90
6843;DHT22;3460;52.028;8.916;2023-04-08T05:12:07;6.30;99.90
6843;DHT22;3460;52.028;8.916;2023-04-08T05:14:34;6.20;99.90
6843;DHT22;3460;52.028;8.916;2023-04-08T05:17:01;6.30;99.90
6843;DHT22;3460;52.028;8.916;2023-04-08T05:19:28;6.30;99.90
6843;DHT22;3460;52.028;8.916;2023-04-08T05:21:54;6.20;99.90
6843;DHT22;3460;52.028;8.916;2023-04-08T05:24:21;6.10;99.90
6843;DHT22;3460;52.028;8.916;2023-04-08T05:26:49;6.00;99.90
6843;DHT22;3460;52.028;8.916;2023-04-08T05:29:17;6.00;99.90
6843;DHT22;3460;52.028;8.916;2023-04-08T05:31:46;6.00;99.90
6843;DHT22;3460;52.028;8.916;2023-04-08T05:34:13;6.00;99.90
6843;DHT22;3460;52.028;8.916;2023-04-08T05:36:40;6.00;99.90
6843;DHT22;3460;52.028;8.916;2023-04-08T05:39:07;6.00;99.90
6843;DHT22;3460;52.028;8.916;2023-04-08T05:41:33;5.90;99.90
6843;DHT22;3460;52.028;8.916;2023-04-08T05:44:02;5.90;99.90
6843;DHT22;3460;52.028;8.916;2023-04-08T05:46:28;5.90;99.90
6843;DHT22;3460;52.028;8.916;2023-04-08T05:48:55;5.90;99.90
6843;DHT22;3460;52.028;8.916;2023-04-08T05:51:22;5.80;99.90
6843;DHT22;3460;52.028;8.916;2023-04-08T05:53:49;5.80;99.90
6843;DHT22;3460;52.028;8.916;2023-04-08T05:56:15;5.80;99.90
6843;DHT22;3460;52.028;8.916;2023-04-08T05:58:42;5.80;99.90
6843;DHT22;3460;52.028;8.916;2023-04-08T06:01:10;5.80;99.90
6843;DHT22;3460;52.028;8.916;2023-04-08T06:03:37;5.80;99.90
6843;DHT22;3460;52.028;8.916;2023-04-08T06:06:08;5.80;99.90
6843;DHT22;3460;52.028;8.916;2023-04-08T06:08:36;5.90;99.90
6843;DHT22;3460;52.028;8.916;2023-04-08T06:11:02;5.80;99.90
6843;DHT22;3460;52.028;8.916;2023-04-08T06:13:29;5.80;99.90
6843;DHT22;3460;52.028;8.916;2023-04-08T06:15:56;5.90;99.90
6843;DHT22;3460;52.028;8.916;2023-04-08T06:18:24;5.90;99.90
6843;DHT22;3460;52.028;8.916;2023-04-08T06:20:51;5.90;99.90
6843;DHT22;3460;52.028;8.916;2023-04-08T06:23:18;5.90;99.90
6843;DHT22;3460;52.028;8.916;2023-04-08T06:25:45;5.90;99.90
6843;DHT22;3460;52.028;8.916;2023-04-08T06:28:12;5.90;99.90
6843;DHT22;3460;52.028;8.916;2023-04-08T06:30:39;5.90;99.90
6843;DHT22;3460;52.028;8.916;2023-04-08T06:33:06;5.90;99.90
6843;DHT22;3460;52.028;8.916;2023-04-08T06:35:34;5.90;99.90
6843;DHT22;3460;52.028;8.916;2023-04-08T06:38:01;5.90;99.90
6843;DHT22;3460;52.028;8.916;2023-04-08T06:40:28;5.90;99.90
6843;DHT22;3460;52.028;8.916;2023-04-08T06:42:55;5.90;99.90
6843;DHT22;3460;52.028;8.916;2023-04-08T06:45:22;5.90;99.90
6843;DHT22;3460;52.028;8.916;2023-04-08T06:47:49;5.90;99.90
6843;DHT22;3460;52.028;8.916;2023-04-08T06:50:17;6.00;99.90
6843;DHT22;3460;52.028;8.916;2023-04-08T06:52:46;6.00;99.90
6843;DHT22;3460;52.028;8.916;2023-04-08T06:55:13;6.00;99.90
6843;DHT22;3460;52.028;8.916;2023-04-08T06:57:39;5.90;99.90
6843;DHT22;3460;52.028;8.916;2023-04-08T07:00:07;6.00;99.90
6843;DHT22;3460;52.028;8.916;2023-04-08T07:02:34;6.10;99.90
6843;DHT22;3460;52.028;8.916;2023-04-08T07:05:01;6.10;99.90
6843;DHT22;3460;52.028;8.916;2023-04-08T07:07:28;6.00;99.90
6843;DHT22;3460;52.028;8.916;2023-04-08T07:09:57;6.00;99.90
6843;DHT22;3460;52.028;8.916;2023-04-08T07:12:24;6.00;99.90
6843;DHT22;3460;52.028;8.916;2023-04-08T07:14:50;6.00;99.90
6843;DHT22;3460;52.028;8.916;2023-04-08T07:17:17;6.10;99.90
6843;DHT22;3460;52.028;8.916;2023-04-08T07:19:44;6.10;99.90
6843;DHT22;3460;52.028;8.916;2023-04-08T07:22:11;6.00;99.90
6843;DHT22;3460;52.028;8.916;2023-04-08T07:24:38;6.10;99.90
6843;DHT22;3460;52.028;8.916;2023-04-08T07:27:08;6.20;99.90
6843;DHT22;3460;52.028;8.916;2023-04-08T07:29:35;6.30;99.90
6843;DHT22;3460;52.028;8.916;2023-04-08T07:32:02;6.40;99.90
6843;DHT22;3460;52.028;8.916;2023-04-08T07:34:29;6.40;99.90
6843;DHT22;3460;52.028;8.916;2023-04-08T07:36:56;6.40;99.90
6843;DHT22;3460;52.028;8.916;2023-04-08T07:39:23;6.50;99.90
6843;DHT22;3460;52.028;8.916;2023-04-08T07:41:50;6.50;99.90
6843;DHT22;3460;52.028;8.916;2023-04-08T07:44:18;6.60;99.90
6843;DHT22;3460;52.028;8.916;2023-04-08T07:46:45;6.80;99.90
6843;DHT22;3460;52.028;8.916;2023-04-08T07:49:15;6.70;99.90
6843;DHT22;3460;52.028;8.916;2023-04-08T07:51:42;6.60;99.90
6843;DHT22;3460;52.028;8.916;2023-04-08T07:54:09;6.50;99.90
6843;DHT22;3460;52.028;8.916;2023-04-08T07:56:37;6.50;99.90
6843;DHT22;3460;52.028;8.916;2023-04-08T07:59:04;6.60;99.90
6843;DHT22;3460;52.028;8.916;2023-04-08T08:01:33;6.70;99.90
6843;DHT22;3460;52.028;8.916;2023-04-08T08:04:00;6.60;99.90
6843;DHT22;3460;52.028;8.916;2023-04-08T08:06:27;6.70;99.90
6843;DHT22;3460;52.028;8.916;2023-04-08T08:08:54;6.70;99.90
6843;DHT22;3460;52.028;8.916;2023-04-08T08:11:21;6.70;99.90
6843;DHT22;3460;52.028;8.916;2023-04-08T08:13:48;6.80;99.90
6843;DHT22;3460;52.028;8.916;2023-04-08T08:16:14;6.90;99.90
6843;DHT22;3460;52.028;8.916;2023-04-08T08:18:43;6.90;99.90
6843;DHT22;3460;52.028;8.916;2023-04-08T08:21:10;7.00;99.90
6843;DHT22;3460;52.028;8.916;2023-04-08T08:23:37;7.00;99.90
6843;DHT22;3460;52.028;8.916;2023-04-08T08:26:06;7.10;99.90
6843;DHT22;3460;52.028;8.916;2023-04-08T08:28:34;7.00;99.90
6843;DHT22;3460;52.028;8.916;2023-04-08T08:31:01;7.00;99.90
6843;DHT22;3460;52.028;8.916;2023-04-08T08:33:28;7.10;99.90
6843;DHT22;3460;52.028;8.916;2023-04-08T08:35:56;7.10;99.90
6843;DHT22;3460;52.028;8.916;2023-04-08T08:38:23;7.20;99.90
6843;DHT22;3460;52.028;8.916;2023-04-08T08:40:53;7.20;99.90
6843;DHT22;3460;52.028;8.916;2023-04-08T08:43:20;7.30;99.90
6843;DHT22;3460;52.028;8.916;2023-04-08T08:45:47;7.30;99.90
6843;DHT22;3460;52.028;8.916;2023-04-08T08:48:16;7.20;99.90
6843;DHT22;3460;52.028;8.916;2023-04-08T08:50:43;7.30;99.90
6843;DHT22;3460;52.028;8.916;2023-04-08T08:53:11;7.20;99.90
6843;DHT22;3460;52.028;8.916;2023-04-08T08:55:38;7.10;99.90
6843;DHT22;3460;52.028;8.916;2023-04-08T08:58:05;7.20;99.90
6843;DHT22;3460;52.028;8.916;2023-04-08T09:00:33;7.20;99.90
6843;DHT22;3460;52.028;8.916;2023-04-08T09:03:15;7.20;99.90
6843;DHT22;3460;52.028;8.916;2023-04-08T09:05:49;7.20;99.90
6843;DHT22;3460;52.028;8.916;2023-04-08T09:08:25;7.30;99.90
6843;DHT22;3460;52.028;8.916;2023-04-08T09:10:52;7.40;99.90
6843;DHT22;3460;52.028;8.916;2023-04-08T09:13:18;7.50;99.90
6843;DHT22;3460;52.028;8.916;2023-04-08T09:16:01;7.60;99.90
6843;DHT22;3460;52.028;8.916;2023-04-08T09:18:30;7.70;99.90
6843;DHT22;3460;52.028;8.916;2023-04-08T09:20:58;7.80;99.90
6843;DHT22;3460;52.028;8.916;2023-04-08T09:23:37;7.80;99.90
6843;DHT22;3460;52.028;8.916;2023-04-08T09:26:07;7.90;99.90
6843;DHT22;3460;52.028;8.916;2023-04-08T09:28:35;7.90;99.90
6843;DHT22;3460;52.028;8.916;2023-04-08T09:31:17;7.80;99.90
6843;DHT22;3460;52.028;8.916;2023-04-08T09:33:44;7.80;99.90
6843;DHT22;3460;52.028;8.916;2023-04-08T09:36:11;7.80;99.90
6843;DHT22;3460;52.028;8.916;2023-04-08T09:38:40;7.80;99.90
6843;DHT22;3460;52.028;8.916;2023-04-08T09:41:07;7.90;99.90
6843;DHT22;3460;52.028;8.916;2023-04-08T09:43:40;7.90;99.90
6843;DHT22;3460;52.028;8.916;2023-04-08T09:46:10;8.00;99.90
6843;DHT22;3460;52.028;8.916;2023-04-08T09:48:39;7.90;99.90
6843;DHT22;3460;52.028;8.916;2023-04-08T09:51:12;7.80;99.90
6843;DHT22;3460;52.028;8.916;2023-04-08T09:53:46;7.70;99.90
6843;DHT22;3460;52.028;8.916;2023-04-08T09:56:14;7.80;99.90
6843;DHT22;3460;52.028;8.916;2023-04-08T09:58:50;7.90;99.90
6843;DHT22;3460;52.028;8.916;2023-04-08T10:01:23;7.80;99.90
6843;DHT22;3460;52.028;8.916;2023-04-08T10:03:54;7.80;99.90
6843;DHT22;3460;52.028;8.916;2023-04-08T10:06:26;7.70;99.90
6843;DHT22;3460;52.028;8.916;2023-04-08T10:08:55;7.70;99.90
6843;DHT22;3460;52.028;8.916;2023-04-08T10:11:22;7.60;99.90
6843;DHT22;3460;52.028;8.916;2023-04-08T10:13:50;7.60;99.90
6843;DHT22;3460;52.028;8.916;2023-04-08T10:16:18;7.60;99.90
6843;DHT22;3460;52.028;8.916;2023-04-08T10:18:46;7.60;99.90
6843;DHT22;3460;52.028;8.916;2023-04-08T10:21:33;7.50;99.90
6843;DHT22;3460;52.028;8.916;2023-04-08T10:24:05;7.60;99.90
6843;DHT22;3460;52.028;8.916;2023-04-08T10:26:35;7.60;99.90
6843;DHT22;3460;52.028;8.916;2023-04-08T10:29:30;7.70;99.90
6843;DHT22;3460;52.028;8.916;2023-04-08T10:31:57;7.80;99.90
6843;DHT22;3460;52.028;8.916;2023-04-08T10:34:25;7.80;99.90
6843;DHT22;3460;52.028;8.916;2023-04-08T10:36:53;7.80;99.90
6843;DHT22;3460;52.028;8.916;2023-04-08T10:39:24;7.80;99.90
6843;DHT22;3460;52.028;8.916;2023-04-08T10:41:51;7.80;99.90
6843;DHT22;3460;52.028;8.916;2023-04-08T10:44:19;7.90;99.90
6843;DHT22;3460;52.028;8.916;2023-04-08T10:46:48;7.90;99.90
6843;DHT22;3460;52.028;8.916;2023-04-08T10:49:15;7.90;99.90
6843;DHT22;3460;52.028;8.916;2023-04-08T10:51:43;7.90;99.90
6843;DHT22;3460;52.028;8.916;2023-04-08T10:54:12;7.90;99.90
6843;DHT22;3460;52.028;8.916;2023-04-08T10:56:48;7.90;99.90
6843;DHT22;3460;52.028;8.916;2023-04-08T10:59:17;7.80;99.90
6843;DHT22;3460;52.028;8.916;2023-04-08T11:01:52;7.80;99.90
6843;DHT22;3460;52.028;8.916;2023-04-08T11:04:19;7.90;99.90
6843;DHT22;3460;52.028;8.916;2023-04-08T11:06:48;7.90;99.90
6843;DHT22;3460;52.028;8.916;2023-04-08T11:09:16;8.00;99.90
6843;DHT22;3460;52.028;8.916;2023-04-08T11:11:44;7.90;99.90
6843;DHT22;3460;52.028;8.916;2023-04-08T11:14:13;7.90;99.90
6843;DHT22;3460;52.028;8.916;2023-04-08T11:16:41;7.90;99.90
6843;DHT22;3460;52.028;8.916;2023-04-08T11:19:08;7.90;99.90
6843;DHT22;3460;52.028;8.916;2023-04-08T11:21:35;7.80;99.90
6843;DHT22;3460;52.028;8.916;2023-04-08T11:24:08;7.70;99.90
6843;DHT22;3460;52.028;8.916;2023-04-08T11:26:37;7.80;99.90
6843;DHT22;3460;52.028;8.916;2023-04-08T11:29:04;7.80;99.90
6843;DHT22;3460;52.028;8.916;2023-04-08T11:31:33;7.70;99.90
6843;DHT22;3460;52.028;8.916;2023-04-08T11:34:01;7.70;99.90
6843;DHT22;3460;52.028;8.916;2023-04-08T11:36:28;7.80;99.90
6843;DHT22;3460;52.028;8.916;2023-04-08T11:38:55;7.80;99.90
6843;DHT22;3460;52.028;8.916;2023-04-08T11:41:22;7.90;99.90
6843;DHT22;3460;52.028;8.916;2023-04-08T11:43:53;8.10;99.90
6843;DHT22;3460;52.028;8.916;2023-04-08T11:46:20;8.30;99.90
6843;DHT22;3460;52.028;8.916;2023-04-08T11:48:59;8.50;99.90
6843;DHT22;3460;52.028;8.916;2023-04-08T11:51:26;8.70;99.90
6843;DHT22;3460;52.028;8.916;2023-04-08T11:53:53;8.70;99.90
6843;DHT22;3460;52.028;8.916;2023-04-08T11:56:22;8.70;99.90
6843;DHT22;3460;52.028;8.916;2023-04-08T11:58:49;8.80;99.90
6843;DHT22;3460;52.028;8.916;2023-04-08T12:01:16;8.80;99.90
6843;DHT22;3460;52.028;8.916;2023-04-08T12:03:58;8.70;99.90
6843;DHT22;3460;52.028;8.916;2023-04-08T12:06:25;8.80;99.90
6843;DHT22;3460;52.028;8.916;2023-04-08T12:08:53;8.90;99.90
6843;DHT22;3460;52.028;8.916;2023-04-08T12:11:20;9.00;99.90
6843;DHT22;3460;52.028;8.916;2023-04-08T12:13:47;9.00;99.90
6843;DHT22;3460;52.028;8.916;2023-04-08T12:16:15;8.90;99.90
6843;DHT22;3460;52.028;8.916;2023-04-08T12:18:42;8.90;99.90
6843;DHT22;3460;52.028;8.916;2023-04-08T12:21:10;9.00;99.90
6843;DHT22;3460;52.028;8.916;2023-04-08T12:23:37;9.00;99.90
6843;DHT22;3460;52.028;8.916;2023-04-08T12:26:04;9.00;99.90
6843;DHT22;3460;52.028;8.916;2023-04-08T12:28:31;9.20;99.90
6843;DHT22;3460;52.028;8.916;2023-04-08T12:30:59;9.10;99.90
6843;DHT22;3460;52.028;8.916;2023-04-08T12:33:26;9.10;99.90
6843;DHT22;3460;52.028;8.916;2023-04-08T12:35:53;9.10;99.90
6843;DHT22;3460;52.028;8.916;2023-04-08T12:38:21;9.00;99.90
6843;DHT22;3460;52.028;8.916;2023-04-08T12:40:47;9.00;99.90
6843;DHT22;3460;52.028;8.916;2023-04-08T12:43:14;9.00;99.90
6843;DHT22;3460;52.028;8.916;2023-04-08T12:45:42;9.00;99.90
6843;DHT22;3460;52.028;8.916;2023-04-08T12:48:08;8.90;99.90
6843;DHT22;3460;52.028;8.916;2023-04-08T12:50:35;8.90;99.90
6843;DHT22;3460;52.028;8.916;2023-04-08T12:53:02;8.90;99.90
6843;DHT22;3460;52.028;8.916;2023-04-08T12:55:30;9.00;99.90
6843;DHT22;3460;52.028;8.916;2023-04-08T12:57:57;9.00;99.90
6843;DHT22;3460;52.028;8.916;2023-04-08T13:00:24;8.90;99.90
6843;DHT22;3460;52.028;8.916;2023-04-08T13:02:51;9.00;99.90
6843;DHT22;3460;52.028;8.916;2023-04-08T13:05:18;8.90;99.90
6843;DHT22;3460;52.028;8.916;2023-04-08T13:07:45;8.90;99.90
6843;DHT22;3460;52.028;8.916;2023-04-08T13:10:12;8.70;99.90
6843;DHT22;3460;52.028;8.916;2023-04-08T13:12:40;8.60;99.90
6843;DHT22;3460;52.028;8.916;2023-04-08T13:15:08;8.60;99.90
6843;DHT22;3460;52.028;8.916;2023-04-08T13:17:35;8.50;99.90
6843;DHT22;3460;52.028;8.916;2023-04-08T13:20:03;8.60;99.90
6843;DHT22;3460;52.028;8.916;2023-04-08T13:22:30;8.50;99.90
6843;DHT22;3460;52.028;8.916;2023-04-08T13:24:58;8.60;99.90
6843;DHT22;3460;52.028;8.916;2023-04-08T13:27:26;8.70;99.90
6843;DHT22;3460;52.028;8.916;2023-04-08T13:29:54;8.70;99.90
6843;DHT22;3460;52.028;8.916;2023-04-08T13:32:21;8.70;99.90
6843;DHT22;3460;52.028;8.916;2023-04-08T13:34:47;8.80;99.90
6843;DHT22;3460;52.028;8.916;2023-04-08T13:37:14;9.00;99.90
6843;DHT22;3460;52.028;8.916;2023-04-08T13:39:41;9.00;99.90
6843;DHT22;3460;52.028;8.916;2023-04-08T13:42:08;9.10;99.90
6843;DHT22;3460;52.028;8.916;2023-04-08T13:44:35;9.20;99.90
6843;DHT22;3460;52.028;8.916;2023-04-08T13:47:03;9.20;99.90
6843;DHT22;3460;52.028;8.916;2023-04-08T13:49:30;9.10;99.90
6843;DHT22;3460;52.028;8.916;2023-04-08T13:51:57;9.10;99.90
6843;DHT22;3460;52.028;8.916;2023-04-08T13:54:24;9.10;99.90
6843;DHT22;3460;52.028;8.916;2023-04-08T13:56:51;9.00;99.90
6843;DHT22;3460;52.028;8.916;2023-04-08T13:59:17;9.10;99.90
6843;DHT22;3460;52.028;8.916;2023-04-08T14:01:44;9.10;99.90
6843;DHT22;3460;52.028;8.916;2023-04-08T14:04:13;9.10;99.90
6843;DHT22;3460;52.028;8.916;2023-04-08T14:06:40;9.10;99.90
6843;DHT22;3460;52.028;8.916;2023-04-08T14:09:08;9.10;99.90
6843;DHT22;3460;52.028;8.916;2023-04-08T14:11:37;9.20;99.90
6843;DHT22;3460;52.028;8.916;2023-04-08T14:14:04;9.20;99.90
6843;DHT22;3460;52.028;8.916;2023-04-08T14:16:30;9.10;99.90
6843;DHT22;3460;52.028;8.916;2023-04-08T14:18:57;9.00;99.90
6843;DHT22;3460;52.028;8.916;2023-04-08T14:21:25;9.00;99.90
6843;DHT22;3460;52.028;8.916;2023-04-08T14:23:58;8.90;99.90
6843;DHT22;3460;52.028;8.916;2023-04-08T14:26:28;8.90;99.90
6843;DHT22;3460;52.028;8.916;2023-04-08T14:28:55;8.90;99.90
6843;DHT22;3460;52.028;8.916;2023-04-08T14:31:21;8.90;99.90
6843;DHT22;3460;52.028;8.916;2023-04-08T14:33:48;8.90;99.90
6843;DHT22;3460;52.028;8.916;2023-04-08T14:36:15;8.80;99.90
6843;DHT22;3460;52.028;8.916;2023-04-08T14:38:44;8.90;99.90
6843;DHT22;3460;52.028;8.916;2023-04-08T14:41:23;9.00;99.90
6843;DHT22;3460;52.028;8.916;2023-04-08T14:43:56;8.90;99.90
6843;DHT22;3460;52.028;8.916;2023-04-08T14:46:35;8.90;99.90
6843;DHT22;3460;52.028;8.916;2023-04-08T14:49:11;9.00;99.90
6843;DHT22;3460;52.028;8.916;2023-04-08T14:51:53;9.10;99.90
6843;DHT22;3460;52.028;8.916;2023-04-08T14:54:21;9.10;99.90
6843;DHT22;3460;52.028;8.916;2023-04-08T14:56:48;9.20;99.90
6843;DHT22;3460;52.028;8.916;2023-04-08T14:59:15;9.30;99.90
6843;DHT22;3460;52.028;8.916;2023-04-08T15:01:42;9.40;99.90
6843;DHT22;3460;52.028;8.916;2023-04-08T15:04:10;9.40;99.90
6843;DHT22;3460;52.028;8.916;2023-04-08T15:06:52;9.30;99.90
6843;DHT22;3460;52.028;8.916;2023-04-08T15:09:27;9.30;99.90
6843;DHT22;3460;52.028;8.916;2023-04-08T15:11:59;9.40;99.90
6843;DHT22;3460;52.028;8.916;2023-04-08T15:14:28;9.40;99.90
6843;DHT22;3460;52.028;8.916;2023-04-08T15:16:59;9.40;99.90
6843;DHT22;3460;52.028;8.916;2023-04-08T15:19:26;9.40;99.90
6843;DHT22;3460;52.028;8.916;2023-04-08T15:21:52;9.40;99.90
6843;DHT22;3460;52.028;8.916;2023-04-08T15:24:19;9.30;99.90
6843;DHT22;3460;52.028;8.916;2023-04-08T15:29:27;9.30;99.90
6843;DHT22;3460;52.028;8.916;2023-04-08T15:31:54;9.30;99.90
6843;DHT22;3460;52.028;8.916;2023-04-08T15:34:21;9.20;99.90
6843;DHT22;3460;52.028;8.916;2023-04-08T15:36:50;9.30;99.90
6843;DHT22;3460;52.028;8.916;2023-04-08T15:39:17;9.30;99.90
6843;DHT22;3460;52.028;8.916;2023-04-08T15:41:44;9.30;99.90
6843;DHT22;3460;52.028;8.916;2023-04-08T15:44:12;9.30;99.90
6843;DHT22;3460;52.028;8.916;2023-04-08T15:46:39;9.30;99.90
6843;DHT22;3460;52.028;8.916;2023-04-08T15:49:06;9.30;99.90
6843;DHT22;3460;52.028;8.916;2023-04-08T15:51:33;9.20;99.90
6843;DHT22;3460;52.028;8.916;2023-04-08T15:53:59;9.20;99.90
6843;DHT22;3460;52.028;8.916;2023-04-08T15:56:26;9.20;99.90
6843;DHT22;3460;52.028;8.916;2023-04-08T15:58:54;9.30;99.90
6843;DHT22;3460;52.028;8.916;2023-04-08T16:01:23;9.30;99.90
6843;DHT22;3460;52.028;8.916;2023-04-08T16:03:50;9.30;99.90
6843;DHT22;3460;52.028;8.916;2023-04-08T16:06:17;9.30;99.90
6843;DHT22;3460;52.028;8.916;2023-04-08T16:08:43;9.20;99.90
6843;DHT22;3460;52.028;8.916;2023-04-08T16:11:11;9.00;99.90
6843;DHT22;3460;52.028;8.916;2023-04-08T16:13:38;9.00;99.90
6843;DHT22;3460;52.028;8.916;2023-04-08T16:16:07;8.90;99.90
6843;DHT22;3460;52.028;8.916;2023-04-08T16:18:35;9.00;99.90
6843;DHT22;3460;52.028;8.916;2023-04-08T16:21:03;9.00;99.90
6843;DHT22;3460;52.028;8.916;2023-04-08T16:23:30;9.00;99.90
6843;DHT22;3460;52.028;8.916;2023-04-08T16:25:58;9.00;99.90